createdAt,value
2018-02-20T00:01:34.350Z,22.58
2018-02-20T00:04:00.973Z,22.56
2018-02-20T00:06:27.556Z,22.56
2018-02-20T00:08:54.113Z,22.57
2018-02-20T00:11:20.740Z,22.57
2018-02-20T00:13:47.309Z,22.53
2018-02-20T00:16:13.868Z,22.58
2018-02-20T00:18:40.474Z,22.57
2018-02-20T00:21:07.036Z,22.53
2018-02-20T00:23:33.632Z,22.53
2018-02-20T00:26:00.237Z,22.55
2018-02-20T00:28:26.807Z,22.58
2018-02-20T00:30:53.373Z,22.53
2018-02-20T00:33:19.978Z,22.41
2018-02-20T00:35:46.550Z,22.20
2018-02-20T00:38:13.173Z,22.05
2018-02-20T00:40:39.769Z,21.92
2018-02-20T00:43:06.349Z,21.95
2018-02-20T00:45:32.894Z,21.99
2018-02-20T00:47:59.458Z,22.08
2018-02-20T00:50:26.030Z,22.14
2018-02-20T00:52:52.596Z,22.21
2018-02-20T00:55:19.231Z,22.22
2018-02-20T00:57:45.841Z,22.25
2018-02-20T01:00:12.503Z,22.26
2018-02-20T01:02:39.062Z,22.30
2018-02-20T01:05:05.669Z,22.31
2018-02-20T01:07:32.228Z,22.29
2018-02-20T01:09:58.853Z,22.33
2018-02-20T01:12:25.417Z,22.30
2018-02-20T01:14:51.977Z,22.28
2018-02-20T01:17:18.583Z,22.32
2018-02-20T01:19:45.166Z,22.32
2018-02-20T01:22:11.732Z,22.25
2018-02-20T01:24:38.345Z,22.31
2018-02-20T01:27:04.927Z,22.33
2018-02-20T01:29:31.604Z,22.28
2018-02-20T01:31:58.182Z,22.29
2018-02-20T01:34:24.861Z,22.31
2018-02-20T01:36:51.411Z,22.27
2018-02-20T01:39:18.060Z,22.25
2018-02-20T01:41:44.617Z,22.26
2018-02-20T01:44:11.189Z,22.26
2018-02-20T01:46:37.757Z,22.28
2018-02-20T01:49:04.317Z,22.26
2018-02-20T01:51:30.935Z,22.25
2018-02-20T01:53:57.517Z,22.22
2018-02-20T01:56:24.162Z,22.21
2018-02-20T01:58:50.803Z,22.22
2018-02-20T02:01:17.360Z,22.17
2018-02-20T02:03:43.949Z,22.17
2018-02-20T02:06:10.571Z,22.17
2018-02-20T02:08:37.171Z,22.19
2018-02-20T02:11:03.735Z,21.92
2018-02-20T02:13:30.363Z,22.21
2018-02-20T02:15:56.982Z,22.10
2018-02-20T02:18:23.544Z,22.15
2018-02-20T02:20:50.151Z,22.07
2018-02-20T02:23:16.725Z,22.00
2018-02-20T02:25:43.341Z,22.19
2018-02-20T02:28:09.904Z,22.15
2018-02-20T02:30:36.575Z,22.00
2018-02-20T02:33:03.142Z,22.09
2018-02-20T02:35:29.722Z,22.15
2018-02-20T02:37:56.324Z,22.13
2018-02-20T02:40:22.887Z,22.14
2018-02-20T02:42:49.500Z,22.13
2018-02-20T02:45:16.053Z,22.14
2018-02-20T02:47:42.741Z,22.17
2018-02-20T02:50:09.348Z,22.17
2018-02-20T02:52:35.945Z,22.09
2018-02-20T02:55:02.550Z,22.16
2018-02-20T02:57:29.111Z,22.15
2018-02-20T02:59:55.711Z,22.16
2018-02-20T03:02:22.279Z,22.16
2018-02-20T03:04:48.835Z,22.19
2018-02-20T03:07:15.441Z,22.14
2018-02-20T03:09:42.007Z,22.14
2018-02-20T03:12:08.625Z,22.14
2018-02-20T03:14:35.265Z,22.18
2018-02-20T03:17:01.897Z,22.14
2018-02-20T03:19:28.458Z,22.15
2018-02-20T03:21:55.030Z,22.16
2018-02-20T03:24:21.643Z,22.15
2018-02-20T03:26:48.219Z,22.14
2018-02-20T03:29:14.906Z,22.18
2018-02-20T03:31:41.550Z,22.18
2018-02-20T03:34:08.099Z,22.17
2018-02-20T03:36:34.699Z,22.15
2018-02-20T03:39:01.327Z,22.20
2018-02-20T03:41:27.881Z,22.17
2018-02-20T03:43:54.441Z,22.18
2018-02-20T03:46:21.042Z,22.19
2018-02-20T03:48:47.614Z,22.19
2018-02-20T03:51:14.209Z,22.20
2018-02-20T03:53:40.782Z,22.19
2018-02-20T03:56:07.346Z,22.18
2018-02-20T03:58:33.904Z,22.21
2018-02-20T04:01:00.520Z,22.19
2018-02-20T04:03:27.090Z,22.18
2018-02-20T04:05:53.664Z,22.20
2018-02-20T04:08:20.228Z,22.21
2018-02-20T04:10:46.801Z,22.21
2018-02-20T04:13:13.361Z,21.62
2018-02-20T04:15:39.947Z,21.20
2018-02-20T04:18:06.562Z,20.56
2018-02-20T04:20:33.127Z,20.24
2018-02-20T04:22:59.685Z,20.52
2018-02-20T04:25:26.250Z,20.32
2018-02-20T04:27:52.815Z,19.88
2018-02-20T04:30:19.392Z,19.47
2018-02-20T04:32:45.958Z,19.62
2018-02-20T04:35:12.553Z,20.46
2018-02-20T04:37:39.121Z,20.90
2018-02-20T04:40:05.718Z,21.09
2018-02-20T04:42:32.290Z,21.20
2018-02-20T04:44:58.862Z,21.32
2018-02-20T04:47:25.427Z,21.39
2018-02-20T04:49:52.065Z,21.49
2018-02-20T04:52:18.621Z,21.52
2018-02-20T04:54:45.248Z,21.55
2018-02-20T04:57:11.846Z,21.58
2018-02-20T04:59:38.411Z,21.63
2018-02-20T05:02:05.021Z,21.66
2018-02-20T05:04:31.645Z,21.69
2018-02-20T05:06:58.209Z,21.64
2018-02-20T05:09:24.807Z,21.73
2018-02-20T05:11:51.362Z,21.69
2018-02-20T05:14:17.933Z,21.80
2018-02-20T05:16:44.516Z,21.82
2018-02-20T05:19:11.076Z,21.77
2018-02-20T05:21:37.644Z,21.87
2018-02-20T05:24:04.234Z,21.90
2018-02-20T05:26:30.799Z,21.87
2018-02-20T05:28:57.368Z,21.90
2018-02-20T05:31:23.950Z,21.84
2018-02-20T05:33:50.525Z,21.82
2018-02-20T05:36:17.134Z,22.12
2018-02-20T05:38:43.714Z,21.96
2018-02-20T05:41:10.469Z,21.84
2018-02-20T05:43:37.042Z,21.85
2018-02-20T05:46:03.651Z,22.04
2018-02-20T05:48:30.230Z,21.98
2018-02-20T05:50:56.955Z,21.81
2018-02-20T05:53:23.525Z,22.05
2018-02-20T05:55:50.190Z,22.03
2018-02-20T05:58:16.770Z,22.02
2018-02-20T06:00:43.425Z,21.97
2018-02-20T06:03:09.996Z,21.89
2018-02-20T06:05:36.603Z,21.99
2018-02-20T06:08:03.163Z,21.93
2018-02-20T06:10:29.734Z,21.93
2018-02-20T06:12:56.358Z,22.03
2018-02-20T06:15:22.929Z,21.83
2018-02-20T06:17:49.560Z,21.94
2018-02-20T06:20:16.140Z,21.94
2018-02-20T06:22:42.931Z,21.92
2018-02-20T06:25:09.499Z,22.01
2018-02-20T06:27:36.101Z,21.98
2018-02-20T06:30:02.871Z,21.81
2018-02-20T06:32:29.455Z,22.06
2018-02-20T06:34:56.058Z,22.24
2018-02-20T06:37:22.842Z,22.36
2018-02-20T06:39:49.400Z,22.54
2018-02-20T06:42:15.991Z,22.23
2018-02-20T06:44:42.585Z,22.11
2018-02-20T06:47:09.198Z,22.02
2018-02-20T06:49:35.791Z,22.01
2018-02-20T06:52:02.534Z,21.96
2018-02-20T06:54:29.116Z,22.03
2018-02-20T06:56:55.681Z,22.11
2018-02-20T06:59:22.271Z,21.97
2018-02-20T07:01:48.943Z,21.83
2018-02-20T07:04:15.626Z,21.91
2018-02-20T07:06:42.305Z,22.29
2018-02-20T07:09:09.000Z,22.22
2018-02-20T07:11:35.762Z,22.17
2018-02-20T07:14:02.329Z,22.24
2018-02-20T07:16:28.949Z,22.23
2018-02-20T07:18:55.702Z,22.24
2018-02-20T07:21:22.325Z,22.17
2018-02-20T07:23:48.984Z,22.22
2018-02-20T07:26:15.571Z,22.18
2018-02-20T07:28:42.330Z,22.36
2018-02-20T07:31:08.873Z,22.36
2018-02-20T07:33:44.275Z,22.24
2018-02-20T07:42:16.736Z,22.56
2018-02-20T07:44:43.310Z,22.40
2018-02-20T07:47:09.991Z,22.39
2018-02-20T07:49:36.617Z,22.45
2018-02-20T07:52:03.246Z,22.60
2018-02-20T07:54:29.839Z,22.19
2018-02-20T07:56:56.478Z,22.46
2018-02-20T07:59:23.046Z,22.55
2018-02-20T08:01:49.924Z,22.88
2018-02-20T08:04:16.483Z,22.77
2018-02-20T08:06:43.178Z,22.59
2018-02-20T08:09:09.801Z,22.50
2018-02-20T08:11:36.428Z,22.51
2018-02-20T08:14:03.005Z,22.32
2018-02-20T08:16:29.699Z,22.14
2018-02-20T08:18:56.449Z,22.01
2018-02-20T08:21:24.221Z,22.17
2018-02-20T08:23:50.815Z,22.37
2018-02-20T08:26:17.399Z,22.36
2018-02-20T08:28:45.048Z,22.38
2018-02-20T08:31:11.643Z,22.36
2018-02-20T08:33:38.311Z,22.51
2018-02-20T08:36:04.995Z,22.53
2018-02-20T08:38:31.630Z,22.49
2018-02-20T08:40:58.245Z,22.55
2018-02-20T08:43:24.978Z,22.56
2018-02-20T08:45:51.692Z,22.57
2018-02-20T08:48:18.375Z,22.76
2018-02-20T08:50:45.136Z,22.85
2018-02-20T08:53:11.752Z,22.78
2018-02-20T08:55:38.324Z,22.79
2018-02-20T08:58:05.101Z,22.62
2018-02-20T09:00:31.679Z,22.46
2018-02-20T09:02:58.280Z,22.34
2018-02-20T09:05:26.182Z,22.17
2018-02-20T09:07:51.591Z,22.17
2018-02-20T09:10:18.225Z,22.24
2018-02-20T09:12:50.300Z,22.30
2018-02-20T09:15:15.746Z,22.44
2018-02-20T09:17:42.401Z,22.58
2018-02-20T09:20:09.157Z,22.64
2018-02-20T09:22:35.839Z,22.70
2018-02-20T09:25:02.421Z,22.88
2018-02-20T09:27:29.089Z,23.01
2018-02-20T09:29:55.676Z,22.85
2018-02-20T09:32:22.328Z,22.88
2018-02-20T09:34:49.055Z,22.91
2018-02-20T09:37:15.704Z,23.07
2018-02-20T09:39:42.427Z,23.10
2018-02-20T09:42:09.062Z,22.98
2018-02-20T09:44:35.751Z,22.93
2018-02-20T09:47:02.457Z,23.08
2018-02-20T09:49:29.154Z,23.03
2018-02-20T09:51:55.851Z,23.08
2018-02-20T09:54:22.471Z,23.04
2018-02-20T09:56:49.025Z,23.11
2018-02-20T09:59:15.699Z,23.14
2018-02-20T10:01:42.341Z,23.18
2018-02-20T10:04:09.013Z,23.19
2018-02-20T10:06:35.577Z,23.26
2018-02-20T10:09:02.206Z,23.22
2018-02-20T10:11:28.772Z,23.25
2018-02-20T10:13:55.691Z,23.29
2018-02-20T10:16:22.342Z,23.33
2018-02-20T10:18:48.994Z,23.27
2018-02-20T10:21:15.596Z,23.43
2018-02-20T10:23:42.230Z,23.26
2018-02-20T10:26:08.956Z,23.46
2018-02-20T10:28:35.660Z,23.61
2018-02-20T10:31:02.262Z,23.06
2018-02-20T10:33:28.872Z,23.37
2018-02-20T10:35:55.521Z,22.98
2018-02-20T10:38:22.162Z,23.29
2018-02-20T10:40:48.818Z,23.36
2018-02-20T10:43:15.458Z,23.03
2018-02-20T10:45:42.210Z,23.00
2018-02-20T10:48:08.697Z,23.13
2018-02-20T10:50:35.457Z,23.04
2018-02-20T10:53:02.036Z,23.27
2018-02-20T10:55:28.627Z,23.10
2018-02-20T10:57:55.305Z,23.37
2018-02-20T11:00:22.225Z,23.16
2018-02-20T11:02:48.866Z,23.19
2018-02-20T11:05:15.444Z,23.34
2018-02-20T11:07:42.072Z,23.49
2018-02-20T11:10:09.044Z,23.53
2018-02-20T11:12:35.785Z,23.60
2018-02-20T11:15:02.438Z,23.67
2018-02-20T11:17:29.029Z,23.66
2018-02-20T11:19:55.661Z,23.30
2018-02-20T11:22:22.291Z,23.57
2018-02-20T11:24:48.874Z,23.57
2018-02-20T11:27:15.487Z,23.74
2018-02-20T11:29:42.096Z,23.69
2018-02-20T11:32:08.821Z,23.88
2018-02-20T11:34:38.574Z,23.49
2018-02-20T11:37:05.177Z,23.63
2018-02-20T11:39:31.809Z,23.80
2018-02-20T11:41:58.385Z,23.75
2018-02-20T11:44:25.034Z,23.63
2018-02-20T11:46:51.656Z,23.69
2018-02-20T11:49:18.265Z,23.76
2018-02-20T11:51:44.894Z,23.76
2018-02-20T11:54:11.647Z,23.98
2018-02-20T11:56:38.306Z,23.90
2018-02-20T11:59:04.900Z,23.73
2018-02-20T12:01:31.698Z,23.82
2018-02-20T12:03:59.135Z,23.98
2018-02-20T12:06:25.876Z,24.01
2018-02-20T12:08:52.817Z,24.05
2018-02-20T12:11:19.459Z,24.06
2018-02-20T12:13:46.046Z,24.11
2018-02-20T12:16:12.628Z,24.14
2018-02-20T12:18:39.196Z,24.12
2018-02-20T12:21:05.815Z,24.05
2018-02-20T12:23:32.474Z,24.01
2018-02-20T12:25:59.067Z,24.07
2018-02-20T12:28:25.791Z,24.13
2018-02-20T12:30:52.560Z,24.19
2018-02-20T12:33:19.181Z,24.16
2018-02-20T12:35:45.783Z,24.10
2018-02-20T12:38:14.403Z,23.90
2018-02-20T12:40:41.034Z,23.67
2018-02-20T12:43:07.610Z,23.73
2018-02-20T12:45:34.249Z,23.30
2018-02-20T12:48:00.857Z,23.44
2018-02-20T12:50:27.443Z,23.46
2018-02-20T12:52:54.157Z,23.32
2018-02-20T12:55:20.727Z,23.33
2018-02-20T12:57:47.343Z,23.47
2018-02-20T13:00:13.982Z,23.58
2018-02-20T13:02:40.728Z,23.48
2018-02-20T13:05:07.343Z,23.97
2018-02-20T13:07:33.985Z,23.60
2018-02-20T13:10:00.711Z,23.52
2018-02-20T13:12:27.296Z,23.47
2018-02-20T13:14:53.922Z,23.54
2018-02-20T13:17:20.547Z,23.55
2018-02-20T13:19:47.171Z,23.63
2018-02-20T13:22:13.765Z,23.54
2018-02-20T13:24:40.436Z,23.55
2018-02-20T13:27:07.115Z,23.52
2018-02-20T13:29:33.713Z,23.55
2018-02-20T13:32:00.338Z,23.69
2018-02-20T13:34:26.919Z,23.79
2018-02-20T13:36:53.556Z,23.63
2018-02-20T13:39:20.251Z,23.62
2018-02-20T13:41:46.887Z,23.67
2018-02-20T13:44:13.623Z,23.74
2018-02-20T13:46:40.312Z,23.81
2018-02-20T13:49:06.997Z,23.75
2018-02-20T13:51:33.593Z,23.90
2018-02-20T13:54:00.483Z,24.15
2018-02-20T13:56:27.161Z,23.98
2018-02-20T13:58:53.785Z,23.88
2018-02-20T14:01:20.365Z,23.90
2018-02-20T14:03:47.039Z,23.89
2018-02-20T14:06:13.670Z,23.86
2018-02-20T14:08:40.322Z,23.93
2018-02-20T14:11:06.944Z,23.88
2018-02-20T14:13:33.547Z,23.89
2018-02-20T14:16:00.181Z,23.97
2018-02-20T14:18:26.884Z,23.86
2018-02-20T14:20:53.489Z,23.76
2018-02-20T14:23:20.143Z,23.72
2018-02-20T14:25:46.868Z,23.68
2018-02-20T14:28:13.587Z,23.77
2018-02-20T14:30:40.282Z,23.99
2018-02-20T14:33:06.959Z,23.93
2018-02-20T14:35:33.470Z,23.84
2018-02-20T14:38:00.183Z,23.73
2018-02-20T14:40:26.768Z,23.76
2018-02-20T14:42:53.424Z,23.98
2018-02-20T14:45:20.025Z,23.90
2018-02-20T14:47:46.637Z,24.08
2018-02-20T14:50:13.253Z,24.01
2018-02-20T14:52:39.904Z,23.81
2018-02-20T14:56:37.816Z,23.91
2018-02-20T14:59:04.513Z,23.73
2018-02-20T15:01:31.159Z,23.71
2018-02-20T15:03:57.843Z,23.70
2018-02-20T15:06:24.455Z,23.68
2018-02-20T15:08:51.108Z,23.62
2018-02-20T15:11:17.732Z,23.80
2018-02-20T15:13:44.688Z,23.77
2018-02-20T15:16:11.304Z,23.58
2018-02-20T15:18:38.168Z,23.66
2018-02-20T15:21:04.784Z,23.55
2018-02-20T15:23:31.421Z,23.70
2018-02-20T15:25:57.983Z,23.65
2018-02-20T15:28:24.638Z,23.45
2018-02-20T15:30:51.324Z,23.49
2018-02-20T15:33:17.898Z,23.53
2018-02-20T15:35:44.475Z,23.46
2018-02-20T15:38:11.049Z,23.54
2018-02-20T15:40:37.939Z,23.51
2018-02-20T15:43:05.530Z,23.40
2018-02-20T15:45:32.123Z,23.41
2018-02-20T15:47:58.743Z,23.59
2018-02-20T15:50:25.323Z,23.35
2018-02-20T15:52:51.905Z,23.46
2018-02-20T15:55:18.531Z,23.43
2018-02-20T15:57:45.235Z,23.35
2018-02-20T16:00:12.048Z,23.30
2018-02-20T16:02:38.642Z,23.36
2018-02-20T16:05:05.248Z,23.43
2018-02-20T16:07:31.829Z,23.51
2018-02-20T16:09:58.403Z,23.42
2018-02-20T16:12:25.032Z,23.35
2018-02-20T16:14:51.846Z,23.22
2018-02-20T16:17:18.422Z,23.22
2018-02-20T16:19:45.014Z,23.37
2018-02-20T16:22:11.599Z,23.34
2018-02-20T16:24:38.171Z,23.40
2018-02-20T16:27:04.733Z,23.31
2018-02-20T16:29:31.483Z,23.32
2018-02-20T16:31:58.038Z,23.32
2018-02-20T16:34:24.629Z,23.34
2018-02-20T16:36:51.305Z,23.05
2018-02-20T16:39:17.873Z,23.30
2018-02-20T16:41:44.608Z,23.17
2018-02-20T16:44:11.230Z,23.32
2018-02-20T16:46:37.877Z,23.28
2018-02-20T16:49:04.437Z,23.64
2018-02-20T16:51:31.004Z,23.39
2018-02-20T16:53:57.645Z,23.36
2018-02-20T16:56:24.259Z,23.38
2018-02-20T16:58:50.832Z,23.28
2018-02-20T17:01:17.469Z,23.50
2018-02-20T17:03:44.052Z,23.43
2018-02-20T17:06:10.727Z,23.38
2018-02-20T17:08:37.337Z,23.30
2018-02-20T17:11:03.915Z,23.29
2018-02-20T17:13:30.474Z,23.25
2018-02-20T17:15:57.104Z,23.05
2018-02-20T17:18:23.715Z,23.27
2018-02-20T17:20:50.343Z,23.08
2018-02-20T17:23:16.894Z,22.85
2018-02-20T17:25:43.568Z,22.64
2018-02-20T17:28:10.189Z,22.53
2018-02-20T17:30:36.799Z,22.54
2018-02-20T17:33:03.354Z,22.57
2018-02-20T17:35:29.929Z,22.77
2018-02-20T17:38:00.701Z,22.80
2018-02-20T17:40:23.129Z,22.76
2018-02-20T17:42:49.770Z,22.77
2018-02-20T17:45:16.333Z,22.83
2018-02-20T17:47:42.909Z,22.52
2018-02-20T17:50:09.549Z,22.86
2018-02-20T17:52:36.177Z,22.85
2018-02-20T17:55:02.742Z,22.83
2018-02-20T17:57:29.305Z,22.77
2018-02-20T17:59:55.908Z,22.84
2018-02-20T18:02:22.510Z,22.74
2018-02-20T18:04:49.081Z,22.86
2018-02-20T18:07:15.638Z,22.84
2018-02-20T18:12:40.761Z,22.86
2018-02-20T18:15:07.339Z,22.87
2018-02-20T18:17:33.905Z,22.86
2018-02-20T18:20:00.481Z,22.86
2018-02-20T18:22:27.052Z,22.85
2018-02-20T18:24:53.630Z,22.88
2018-02-20T18:27:20.237Z,22.86
2018-02-20T18:29:46.806Z,22.85
2018-02-20T18:32:13.427Z,22.85
2018-02-20T18:34:39.999Z,22.85
2018-02-20T18:37:06.627Z,22.85
2018-02-20T18:39:33.201Z,22.83
2018-02-20T18:41:59.901Z,22.88
2018-02-20T18:44:26.400Z,22.85
2018-02-20T18:46:52.998Z,22.86
2018-02-20T18:49:19.699Z,22.85
2018-02-20T18:51:46.284Z,22.83
2018-02-20T18:54:12.893Z,22.87
2018-02-20T18:56:39.468Z,22.85
2018-02-20T18:59:06.102Z,22.84
2018-02-20T19:01:32.668Z,22.84
2018-02-20T19:03:59.354Z,22.89
2018-02-20T19:06:25.943Z,22.88
2018-02-20T19:08:52.538Z,22.88
2018-02-20T19:11:19.151Z,22.85
2018-02-20T19:13:45.749Z,22.88
2018-02-20T19:16:12.408Z,22.87
2018-02-20T19:18:38.999Z,22.85
2018-02-20T19:21:05.574Z,22.87
2018-02-20T19:23:32.134Z,22.81
2018-02-20T19:25:58.745Z,22.86
2018-02-20T19:28:25.350Z,22.83
2018-02-20T19:30:51.916Z,22.83
2018-02-20T19:33:18.514Z,22.83
2018-02-20T19:35:45.068Z,22.83
2018-02-20T19:38:11.688Z,22.81
2018-02-20T19:40:38.352Z,22.82
2018-02-20T19:43:04.943Z,22.82
2018-02-20T19:45:31.684Z,22.82
2018-02-20T19:47:58.263Z,22.80
2018-02-20T19:50:24.878Z,22.80
2018-02-20T19:52:51.440Z,22.78
2018-02-20T19:55:18.058Z,22.77
2018-02-20T19:57:44.652Z,22.76
2018-02-20T20:00:11.316Z,22.73
2018-02-20T20:02:37.951Z,22.66
2018-02-20T20:05:04.565Z,22.57
2018-02-20T20:07:31.126Z,22.40
2018-02-20T20:09:57.761Z,22.28
2018-02-20T20:12:24.326Z,22.30
2018-02-20T20:14:50.884Z,22.38
2018-02-20T20:17:17.494Z,22.41
2018-02-20T20:19:44.062Z,22.44
2018-02-20T20:22:10.692Z,22.39
2018-02-20T20:24:37.339Z,22.48
2018-02-20T20:27:03.888Z,22.49
2018-02-20T20:29:30.445Z,22.50
2018-02-20T20:31:57.085Z,22.53
2018-02-20T20:34:23.656Z,22.53
2018-02-20T20:36:50.271Z,22.54
2018-02-20T20:39:16.883Z,22.54
2018-02-20T20:41:43.525Z,22.55
2018-02-20T20:44:10.130Z,22.56
2018-02-20T20:46:36.804Z,22.57
2018-02-20T20:49:03.338Z,22.53
2018-02-20T20:51:29.909Z,22.55
2018-02-20T20:53:56.515Z,22.59
2018-02-20T20:56:23.143Z,22.56
2018-02-20T20:58:49.802Z,22.58
2018-02-20T21:01:16.369Z,22.55
2018-02-20T21:03:42.990Z,22.59
2018-02-20T21:06:09.688Z,22.56
2018-02-20T21:08:36.354Z,22.56
2018-02-20T21:11:02.914Z,22.59
2018-02-20T21:13:29.505Z,22.60
2018-02-20T21:15:56.082Z,22.61
2018-02-20T21:18:22.663Z,22.60
2018-02-20T21:20:49.225Z,22.61
2018-02-20T21:23:15.794Z,22.59
2018-02-20T21:25:42.362Z,22.58
2018-02-20T21:28:09.008Z,22.58
2018-02-20T21:30:35.588Z,22.60
2018-02-20T21:33:02.212Z,22.60
2018-02-20T21:35:28.797Z,22.56
2018-02-20T21:37:55.390Z,22.60
2018-02-20T21:40:22.011Z,22.57
2018-02-20T21:42:48.597Z,22.55
2018-02-20T21:45:15.138Z,22.56
2018-02-20T21:47:41.748Z,22.53
2018-02-20T21:50:08.315Z,22.52
2018-02-20T21:52:34.923Z,22.52
2018-02-20T21:55:01.476Z,22.50
2018-02-20T21:57:28.041Z,22.49
2018-02-20T21:59:54.647Z,22.45
2018-02-20T22:02:21.221Z,22.45
2018-02-20T22:04:47.938Z,22.41
2018-02-20T22:07:14.510Z,22.41
2018-02-20T22:09:41.083Z,22.37
2018-02-20T22:12:07.674Z,22.37
2018-02-20T22:14:34.311Z,22.37
2018-02-20T22:17:00.910Z,22.35
2018-02-20T22:19:27.430Z,22.34
2018-02-20T22:21:54.014Z,22.32
2018-02-20T22:24:20.613Z,22.21
2018-02-20T22:26:47.289Z,22.00
2018-02-20T22:29:13.924Z,21.82
2018-02-20T22:31:40.486Z,21.78
2018-02-20T22:34:07.086Z,21.84
2018-02-20T22:36:33.766Z,21.92
2018-02-20T22:39:00.366Z,22.02
2018-02-20T22:41:26.928Z,22.06
2018-02-20T22:43:53.598Z,22.09
2018-02-20T22:46:20.325Z,22.10
2018-02-20T22:48:46.886Z,22.11
2018-02-20T22:51:13.454Z,22.13
2018-02-20T22:53:40.032Z,22.20
2018-02-20T22:56:06.597Z,22.15
2018-02-20T22:58:33.159Z,22.19
2018-02-20T23:00:59.723Z,22.23
2018-02-20T23:03:26.283Z,22.23
2018-02-20T23:05:52.894Z,22.23
2018-02-20T23:08:19.457Z,22.26
2018-02-20T23:10:46.089Z,22.25
2018-02-20T23:13:12.651Z,22.25
2018-02-20T23:15:39.274Z,22.25
2018-02-20T23:18:05.835Z,22.29
2018-02-20T23:20:32.441Z,22.29
2018-02-20T23:22:59.060Z,22.31
2018-02-20T23:25:25.741Z,22.29
2018-02-20T23:27:52.338Z,22.27
2018-02-20T23:30:18.965Z,22.30
2018-02-20T23:32:45.756Z,22.31
2018-02-20T23:35:12.321Z,22.32
2018-02-20T23:37:38.893Z,22.34
2018-02-20T23:40:05.462Z,22.31
2018-02-20T23:42:32.038Z,22.34
2018-02-20T23:44:58.673Z,22.32
2018-02-20T23:47:25.329Z,22.29
2018-02-20T23:49:51.822Z,22.34
2018-02-20T23:52:18.394Z,22.33
2018-02-20T23:54:44.967Z,22.32
2018-02-20T23:57:11.529Z,22.29
2018-02-20T23:59:38.125Z,22.34
